Newburg Corners, Wisconsin
Current Conditions -  °F | °C
As of 11:53 AM on Friday 28 Nov 2014 (Local Time) from KLSE Reporting Station
Clear Clear  
Wind Chill: 16°   Ceiling: Unl
Heat Index: 25°   Visibility: 10mi
Dew Point: 14°   Wind: 9mph
Humidity: 63%   Direction: 170°S
Pressure: 29.98"   Gusts: NA
Location:  43.8385°N, 90.9811°W
Report Text: KLSE 281753Z 17008KT 10SM CLR M04/M10 A2998 RMK AO2 PRESFR SLP170 T10391100 11039 21089 58029
Loading
Personal Weather Stations






























Interactive Weather Map New forecast layout! Learn more

10-Day Weather Forecast

Advertisements
Track Severe Weather on mobile